Pagrindinis puslapis
METAR-TAF:

METAR-TAF

Oro uostai :

Bukareštas-Băneasa, Rumunija

platuma: 44-30N, ilguma: 026-08E, Aukštis: 90 m

Dabartinis oras

Ataskaita buvo paskelbta 44 minutes, ne 06:00 UTC
Vėjas 7 kt iš Vakarų, svyruoja nuo Pietvakarių ir Vakarų/Šiaurės Vakarų
Temperatūra 15°C
Drėgmė 82%
Slėgis 1008 hPa
Matomumas 10 km arba daugiau
Išsisklaidę debesys ne aukštis 1000 ft

METAR: LRBS 140600Z 27007KT 230V300 9999 SCT010 15/12 Q1008 NOSIG

Laikas: 09:44 (06:44 UTC)

Prognozė

Ataskaita buvo paskelbta 1 valandą ir 44 minutes, ne 05:00 UTC
Prognozė galioja nuo 14 metu 06 UTC su 15 metu 06 UTC
Vėjas 10 kt iš Vakarų
Matomumas 10 km arba daugiau
nėra debesų žemiau 1500 m ir nėra kamuolinių lietaus debesų
Tikimybė 40% :
Laikinai
nuo 14 metu 10 UTC su 14 metu 14 UTC
Vėjas 15 kt iš Vakarų su gūsio iki 25 kt
Laikinai
nuo 15 metu 01 UTC su 15 metu 05 UTC
Matomumas: 3000 m
rūkana

TAF: LRBS 140500Z 1406/1506 26010KT CAVOK PROB40 TEMPO 1410/1414 26015G25KT TEMPO 1501/1505 3000 BR

Orai ataskaitas ir orų prognozės (METAR, TAF).

turimą stotys yra geltonos ir raudonos taškus žemėlapyje.

Perkelti pele per norėdami pamatyti stoties vardą.

Tada spustelėkite, norėdami matyti oro stebėjimo ir prognozės.

Norėdami pakeisti žemėlapį: spustelėkite ant žalios mygtukų su juodo kryžiaus žemyn,; žalią mygtuką su brūkšneliu, jei norite nutolinti; arba žalių rodyklių gretimoms žemėlapius.


METAR-TAF: